Time;durP1;ratioP1;P1;durP2;ratioP2;P2;SDS_P1;SDS_P2;PMS_P1;PMS_P2;Temp;Humidity;BMP_temperature;BMP_pressure;BME280_temperature;BME280_humidity;BME280_pressure;Samples;Min_cycle;Max_cycle;Signal;HPM_P1;HPM_P2
2021/11/07 00:09:38;;;;;;;53.25;20.98;;;;;;;6.05;98.14;99574.16;5064076;28;20027;-65
2021/11/07 00:12:20;;;;;;;54.00;21.58;;;;;;;6.01;98.50;99570.63;5064225;28;20029;-65
2021/11/07 00:14:48;;;;;;;54.42;20.88;;;;;;;5.93;98.70;99574.88;5061465;28;20041;-65
2021/11/07 00:17:18;;;;;;;63.30;22.90;;;;;;;5.96;99.12;99568.81;5050298;28;20327;-65
2021/11/07 00:19:50;;;;;;;47.08;19.80;;;;;;;5.97;98.77;99557.50;5053150;28;20016;-65
2021/11/07 00:24:51;;;;;;;60.65;21.58;;;;;;;6.06;98.72;99536.72;5064139;28;20260;-65
2021/11/07 00:27:27;;;;;;;56.78;20.92;;;;;;;6.08;98.63;99532.41;5064169;28;20023;-65
2021/11/07 00:30:43;;;;;;;54.67;21.15;;;;;;;6.07;98.01;99514.94;5064428;28;20075;-65
2021/11/07 00:38:02;;;;;;;50.58;20.33;;;;;;;6.01;98.65;99533.19;5064322;28;20032;-65
2021/11/07 00:43:03;;;;;;;51.90;20.98;;;;;;;6.12;98.15;99521.13;5064230;28;20251;-65
2021/11/07 00:51:04;;;;;;;53.28;19.98;;;;;;;6.11;97.90;99532.44;5063907;28;20209;-65
2021/11/07 01:01:36;;;;;;;53.47;21.25;;;;;;;6.09;97.18;99492.31;5033012;28;20113;-65
2021/11/07 01:04:03;;;;;;;47.13;19.38;;;;;;;6.07;97.78;99494.03;5044647;28;20025;-65
2021/11/07 01:06:29;;;;;;;57.92;21.10;;;;;;;6.12;98.24;99479.28;5047895;28;20021;-65
2021/11/07 01:08:55;;;;;;;53.50;21.30;;;;;;;6.11;98.12;99469.72;5047900;28;20048;-65
2021/11/07 01:11:20;;;;;;;54.25;21.65;;;;;;;6.14;98.01;99474.97;5047829;28;20360;-65
2021/11/07 01:13:46;;;;;;;53.70;21.13;;;;;;;6.00;98.10;99479.13;5047822;28;20025;-65
2021/11/07 01:16:11;;;;;;;48.70;21.02;;;;;;;6.05;98.00;99486.16;5047748;28;20325;-65
2021/11/07 01:18:37;;;;;;;48.95;20.90;;;;;;;6.02;97.80;99486.13;5061594;28;20032;-65
2021/11/07 01:21:03;;;;;;;54.85;22.00;;;;;;;6.04;98.40;99488.75;5065383;28;20031;-65
2021/11/07 01:23:42;;;;;;;65.47;21.85;;;;;;;6.01;98.33;99486.16;5067027;28;20049;-65
2021/11/07 01:26:52;;;;;;;66.10;21.30;;;;;;;6.05;98.44;99483.56;5066812;28;20021;-65
2021/11/07 01:29:04;;;;;;;56.60;22.17;;;;;;;6.00;98.48;99471.31;5048547;28;20053;-65
2021/11/07 01:31:30;;;;;;;51.17;21.60;;;;;;;6.06;98.40;99467.03;5056174;28;20060;-65
2021/11/07 01:33:58;;;;;;;53.05;20.63;;;;;;;6.05;98.18;99470.50;5060856;28;20312;-65
2021/11/07 01:39:07;;;;;;;54.05;20.30;;;;;;;6.05;98.03;99464.41;5047737;28;20100;-65
2021/11/07 01:41:43;;;;;;;50.72;20.48;;;;;;;6.08;98.10;99454.00;5047448;28;20029;-65
2021/11/07 01:44:09;;;;;;;52.65;20.40;;;;;;;6.09;98.00;99440.06;5047274;28;20024;-65
2021/11/07 01:46:36;;;;;;;56.95;21.17;;;;;;;6.03;98.43;99419.97;5047300;28;20049;-65
2021/11/07 01:49:19;;;;;;;50.80;21.00;;;;;;;6.16;98.79;99427.06;5047252;28;20041;-65
2021/11/07 01:51:51;;;;;;;52.97;22.15;;;;;;;6.14;98.51;99414.88;5047459;28;20026;-65
2021/11/07 01:56:45;;;;;;;51.25;20.75;;;;;;;6.17;98.20;99430.56;5048144;28;20355;-65
2021/11/07 01:59:10;;;;;;;49.60;19.27;;;;;;;6.15;98.20;99434.91;5066432;28;20021;-65
2021/11/07 02:01:36;;;;;;;49.88;19.23;;;;;;;6.06;98.31;99440.03;5066628;28;20020;-65
2021/11/07 02:04:02;;;;;;;58.05;20.42;;;;;;;6.05;98.60;99438.28;5066003;28;20236;-65
2021/11/07 02:06:27;;;;;;;50.05;21.40;;;;;;;6.21;97.99;99440.19;5066339;28;20025;-65
2021/11/07 02:08:53;;;;;;;46.45;21.23;;;;;;;6.21;98.03;99440.19;5048158;28;20217;-65
2021/11/07 02:11:19;;;;;;;53.67;19.15;;;;;;;6.18;97.55;99435.81;5051494;28;20016;-65
2021/11/07 02:13:45;;;;;;;54.20;21.60;;;;;;;6.17;97.25;99426.19;5058515;28;20340;-65
2021/11/07 02:16:11;;;;;;;49.00;20.17;;;;;;;6.07;97.46;99431.31;5066077;28;20027;-65
2021/11/07 02:18:37;;;;;;;49.83;18.50;;;;;;;6.17;98.08;99422.75;5050438;28;20021;-65
2021/11/07 02:21:05;;;;;;;51.97;20.83;;;;;;;6.07;97.77;99431.31;5046585;28;20028;-65
2021/11/07 02:23:31;;;;;;;46.03;20.23;;;;;;;6.09;98.04;99434.84;5046557;28;20021;-65
2021/11/07 02:26:01;;;;;;;44.60;19.80;;;;;;;6.09;97.82;99440.06;5047748;28;20018;-65
2021/11/07 02:28:33;;;;;;;44.75;19.13;;;;;;;6.17;97.94;99438.41;5056736;28;20020;-65
2021/11/07 02:31:00;;;;;;;43.53;19.17;;;;;;;6.12;98.23;99434.88;5066187;28;20028;-65
2021/11/07 02:33:26;;;;;;;52.65;21.77;;;;;;;6.07;97.93;99436.53;5064655;28;20037;-65
2021/11/07 02:35:51;;;;;;;52.53;20.55;;;;;;;6.06;97.64;99440.03;5050310;28;20084;-65
2021/11/07 02:38:16;;;;;;;51.17;21.70;;;;;;;6.01;98.06;99433.88;5046343;28;20100;-65
2021/11/07 02:40:42;;;;;;;48.65;19.25;;;;;;;6.01;98.21;99411.22;5046272;28;20035;-65
2021/11/07 02:43:08;;;;;;;59.50;22.75;;;;;;;6.00;98.16;99409.47;5046195;28;20026;-65
2021/11/07 02:45:34;;;;;;;52.97;21.92;;;;;;;6.07;98.28;99433.94;5062566;28;20044;-65
2021/11/07 02:47:59;;;;;;;54.88;20.63;;;;;;;6.04;98.22;99436.50;5065787;28;20041;-65
2021/11/07 02:50:25;;;;;;;47.70;19.55;;;;;;;6.08;97.82;99433.09;5064139;28;20229;-65
2021/11/07 02:52:50;;;;;;;54.80;19.80;;;;;;;6.09;97.60;99434.84;5064115;28;20021;-65
2021/11/07 02:55:20;;;;;;;51.30;21.35;;;;;;;6.14;97.74;99427.94;5065054;28;20025;-65
2021/11/07 02:57:47;;;;;;;47.92;19.90;;;;;;;6.13;97.43;99426.16;5065818;28;20025;-65
2021/11/07 03:00:16;;;;;;;48.97;20.45;;;;;;;6.12;97.62;99440.09;5065930;28;20075;-65
2021/11/07 03:02:42;;;;;;;52.30;20.80;;;;;;;6.08;97.26;99433.94;5065702;28;20024;-65
2021/11/07 03:05:09;;;;;;;46.67;19.70;;;;;;;6.09;97.60;99438.34;5065797;28;20029;-65
2021/11/07 03:07:35;;;;;;;47.60;20.45;;;;;;;6.07;97.46;99441.75;5065898;28;20212;-65
2021/11/07 03:10:01;;;;;;;47.50;21.10;;;;;;;6.09;97.46;99435.72;5065612;28;20044;-65
2021/11/07 03:12:26;;;;;;;48.20;20.08;;;;;;;6.24;97.81;99446.31;5065555;28;20224;-65
2021/11/07 03:14:52;;;;;;;47.83;18.77;;;;;;;6.15;97.26;99445.34;5065561;28;20027;-65
2021/11/07 03:17:23;;;;;;;40.88;19.15;;;;;;;6.17;97.19;99451.50;5065657;28;20056;-65
2021/11/07 03:19:50;;;;;;;51.03;20.90;;;;;;;6.06;96.91;99445.25;5051507;28;20024;-65
2021/11/07 03:22:18;;;;;;;44.47;19.02;;;;;;;6.00;97.04;99434.72;5045453;28;20518;-65
2021/11/07 03:24:45;;;;;;;49.20;19.00;;;;;;;6.01;97.79;99441.72;5045421;28;20040;-65
2021/11/07 03:27:17;;;;;;;50.45;19.40;;;;;;;6.01;97.60;99426.91;5046961;28;20028;-65
2021/11/07 03:29:47;;;;;;;49.17;19.65;;;;;;;6.05;97.62;99430.44;5050333;28;20063;-65
2021/11/07 03:32:19;;;;;;;42.47;18.98;;;;;;;6.02;96.87;99440.84;5045444;28;20029;-65
2021/11/07 03:34:49;;;;;;;40.65;17.98;;;;;;;6.04;97.74;99431.28;5045537;28;20377;-65
2021/11/07 03:37:21;;;;;;;41.88;18.45;;;;;;;6.01;96.98;99433.88;5045320;28;20140;-65
2021/11/07 03:39:47;;;;;;;45.05;18.38;;;;;;;5.97;97.21;99427.72;5045128;28;20031;-65
2021/11/07 03:42:13;;;;;;;43.85;19.05;;;;;;;5.94;96.84;99429.41;5045106;28;20033;-65
2021/11/07 03:44:40;;;;;;;39.95;17.90;;;;;;;5.87;97.47;99417.16;5045206;28;20029;-65
2021/11/07 03:47:06;;;;;;;49.78;21.58;;;;;;;5.87;97.46;99406.69;5050968;28;20298;-65
2021/11/07 03:49:32;;;;;;;49.45;19.33;;;;;;;5.99;97.24;99393.78;5064905;28;20025;-65
2021/11/07 03:51:58;;;;;;;44.83;17.58;;;;;;;6.04;96.90;99389.47;5053646;28;20401;-65
2021/11/07 03:54:26;;;;;;;47.50;20.48;;;;;;;5.98;96.49;99389.44;5045112;28;20013;-65
2021/11/07 03:56:51;;;;;;;44.00;18.65;;;;;;;6.05;97.06;99380.78;5046064;28;20045;-65
2021/11/07 03:59:17;;;;;;;41.25;18.80;;;;;;;5.91;96.50;99387.59;5044871;28;20063;-65
2021/11/07 04:01:43;;;;;;;47.17;18.52;;;;;;;5.94;96.92;99371.94;5044833;28;20021;-65
2021/11/07 04:04:09;;;;;;;42.08;18.33;;;;;;;5.91;96.69;99362.34;5044644;28;20260;-65
2021/11/07 04:06:36;;;;;;;46.30;17.55;;;;;;;5.92;96.96;99363.22;5052496;28;20025;-65
2021/11/07 04:09:04;;;;;;;42.70;18.90;;;;;;;5.81;96.66;99351.75;5044718;28;20021;-65
2021/11/07 04:11:29;;;;;;;46.33;18.77;;;;;;;5.86;96.78;99357.94;5063834;28;20104;-65
2021/11/07 04:13:55;;;;;;;42.85;20.13;;;;;;;5.88;95.94;99366.66;5064068;28;20017;-65
2021/11/07 04:16:20;;;;;;;43.00;18.00;;;;;;;5.87;96.49;99364.91;5063966;28;20321;-65
2021/11/07 04:18:46;;;;;;;46.67;17.85;;;;;;;5.84;96.20;99362.25;5064349;28;20044;-65
2021/11/07 04:21:13;;;;;;;50.00;19.20;;;;;;;5.81;96.44;99367.41;5064281;28;20033;-65
2021/11/07 04:23:38;;;;;;;37.28;17.95;;;;;;;5.76;96.59;99356.06;5064303;28;20087;-65
2021/11/07 04:26:05;;;;;;;46.92;18.95;;;;;;;5.66;96.57;99355.06;5064274;28;20032;-65
2021/11/07 04:28:31;;;;;;;42.85;17.95;;;;;;;5.64;96.62;99355.91;5064215;28;20347;-65
2021/11/07 04:30:57;;;;;;;39.15;17.08;;;;;;;5.62;96.77;99360.22;5064198;28;20025;-65
2021/11/07 04:33:24;;;;;;;38.88;18.77;;;;;;;5.61;97.01;99355.88;5064145;28;20084;-65
2021/11/07 04:35:50;;;;;;;39.60;18.88;;;;;;;5.58;96.73;99340.16;5055130;28;20017;-65
2021/11/07 04:38:16;;;;;;;42.45;19.25;;;;;;;5.59;97.28;99318.41;5043665;28;20040;-65
2021/11/07 04:40:41;;;;;;;46.92;20.48;;;;;;;5.45;96.99;99312.16;5043813;28;20206;-65
2021/11/07 04:43:07;;;;;;;48.80;19.38;;;;;;;5.36;97.52;99322.50;5044115;28;20047;-65
2021/11/07 04:45:32;;;;;;;41.85;18.55;;;;;;;5.31;97.97;99317.22;5043955;28;20029;-65
2021/11/07 04:47:58;;;;;;;42.83;18.20;;;;;;;5.26;97.81;99331.09;5044016;28;20221;-65
2021/11/07 04:50:24;;;;;;;43.10;19.20;;;;;;;5.24;97.86;99332.78;5043998;28;20022;-65
2021/11/07 04:52:49;;;;;;;45.20;18.55;;;;;;;5.23;97.83;99331.94;5043963;28;20029;-65
2021/11/07 04:55:16;;;;;;;42.72;17.98;;;;;;;5.33;97.74;99327.69;5043912;28;20120;-65
2021/11/07 04:57:42;;;;;;;40.30;17.77;;;;;;;5.32;98.16;99323.31;5043934;28;20045;-65
2021/11/07 05:00:22;;;;;;;37.80;18.35;;;;;;;5.28;98.12;99316.31;5043836;28;20025;-65
2021/11/07 05:02:49;;;;;;;45.05;20.30;;;;;;;5.32;98.33;99299.84;5044681;28;20041;-65
2021/11/07 05:05:16;;;;;;;39.88;18.30;;;;;;;5.42;98.24;99276.47;5043796;28;20208;-65
2021/11/07 05:07:41;;;;;;;45.63;19.80;;;;;;;5.41;97.79;99289.50;5050585;28;20046;-65
2021/11/07 05:10:08;;;;;;;42.13;20.02;;;;;;;5.49;98.42;99286.13;5063242;28;20027;-65
2021/11/07 05:12:33;;;;;;;44.90;19.60;;;;;;;5.60;97.57;99286.25;5054685;28;20269;-65
2021/11/07 05:14:59;;;;;;;37.17;18.05;;;;;;;5.59;97.81;99290.56;5045967;28;20013;-65
2021/11/07 05:17:25;;;;;;;43.85;18.67;;;;;;;5.60;97.50;99283.63;5063520;28;20032;-65
2021/11/07 05:19:51;;;;;;;44.08;18.88;;;;;;;5.59;96.97;99280.13;5063422;28;20086;-65
2021/11/07 05:22:17;;;;;;;42.35;19.33;;;;;;;5.48;97.20;99275.66;5063621;28;20320;-65
2021/11/07 05:24:42;;;;;;;40.53;19.88;;;;;;;5.51;97.15;99260.03;5063719;28;20021;-65
2021/11/07 05:27:08;;;;;;;43.67;19.88;;;;;;;5.61;97.80;99249.69;5063614;28;20088;-65
2021/11/07 05:29:33;;;;;;;42.47;18.52;;;;;;;5.56;97.36;99253.09;5063330;28;20021;-65
2021/11/07 05:32:00;;;;;;;44.40;20.20;;;;;;;5.52;97.66;99256.56;5063670;28;20025;-65
2021/11/07 05:34:26;;;;;;;48.65;19.38;;;;;;;5.42;97.69;99254.69;5063622;28;20016;-65
2021/11/07 05:36:51;;;;;;;38.63;17.80;;;;;;;5.46;97.70;99240.81;5063508;28;20025;-65
2021/11/07 05:39:18;;;;;;;39.78;18.58;;;;;;;5.44;97.65;99239.94;5063474;28;20021;-65
2021/11/07 05:41:43;;;;;;;41.28;18.65;;;;;;;5.37;97.91;99238.09;5063480;28;20013;-65
2021/11/07 05:44:09;;;;;;;39.53;18.63;;;;;;;5.37;97.96;99254.66;5052359;28;20017;-65
2021/11/07 05:46:35;;;;;;;40.10;17.52;;;;;;;5.55;97.62;99238.31;5043579;28;20024;-65
2021/11/07 05:49:00;;;;;;;42.45;18.70;;;;;;;5.44;97.66;99216.44;5043479;28;20018;-65
2021/11/07 05:51:26;;;;;;;38.30;17.25;;;;;;;5.54;97.22;99213.06;5046225;28;20089;-65
2021/11/07 05:53:51;;;;;;;36.35;16.77;;;;;;;5.62;97.69;99214.00;5054583;28;20036;-65
2021/11/07 05:56:17;;;;;;;36.42;18.10;;;;;;;5.52;97.02;99214.78;5066295;28;20089;-65
2021/11/07 05:58:42;;;;;;;35.60;16.85;;;;;;;5.60;97.16;99228.78;5066738;28;20028;-65
2021/11/07 06:01:09;;;;;;;39.38;17.38;;;;;;;5.57;97.35;99218.31;5066273;28;20027;-65
2021/11/07 06:03:35;;;;;;;39.15;17.60;;;;;;;5.56;97.15;99237.44;5064970;28;20017;-65
2021/11/07 06:06:00;;;;;;;32.17;15.93;;;;;;;5.59;97.44;99250.53;5066449;28;20028;-65
2021/11/07 06:08:26;;;;;;;40.28;17.90;;;;;;;5.55;97.84;99247.03;5057134;28;20228;-65
2021/11/07 06:10:51;;;;;;;35.95;15.82;;;;;;;5.73;97.59;99235.88;5047186;28;20014;-65
2021/11/07 06:13:16;;;;;;;35.65;17.85;;;;;;;5.56;97.14;99227.00;5048248;28;20021;-65
2021/11/07 06:15:42;;;;;;;37.67;17.73;;;;;;;5.57;97.33;99229.63;5047117;28;20018;-65
2021/11/07 06:18:08;;;;;;;32.97;15.65;;;;;;;5.58;97.00;99239.22;5051341;28;20021;-65
2021/11/07 06:20:34;;;;;;;35.05;17.60;;;;;;;5.75;98.30;99240.25;5063522;28;20048;-65
2021/11/07 06:23:01;;;;;;;38.60;17.50;;;;;;;5.68;97.63;99217.56;5047166;28;20052;-65
2021/11/07 06:25:27;;;;;;;37.05;16.70;;;;;;;5.74;96.91;99201.06;5063677;28;20017;-65
2021/11/07 06:27:53;;;;;;;35.42;16.98;;;;;;;5.74;96.90;99195.84;5065157;28;20081;-65
2021/11/07 06:30:19;;;;;;;33.05;17.23;;;;;;;5.68;96.68;99201.00;5048737;28;20025;-65
2021/11/07 06:32:45;;;;;;;38.03;18.08;;;;;;;5.60;97.43;99197.47;5047797;28;20032;-65
2021/11/07 06:35:12;;;;;;;38.40;18.88;;;;;;;5.74;97.52;99195.84;5064595;28;20013;-65
2021/11/07 06:37:38;;;;;;;34.85;17.52;;;;;;;5.75;97.37;99192.34;5064683;28;20031;-65
2021/11/07 06:40:05;;;;;;;37.78;18.23;;;;;;;5.72;96.87;99187.09;5053203;28;20329;-65
2021/11/07 06:42:30;;;;;;;37.28;17.15;;;;;;;5.75;97.05;99179.28;5045336;28;20343;-65
2021/11/07 06:44:56;;;;;;;35.70;17.42;;;;;;;5.84;96.94;99187.25;5058755;28;20041;-65
2021/11/07 06:47:22;;;;;;;35.15;17.67;;;;;;;5.64;97.23;99194.00;5045795;28;20075;-65
2021/11/07 06:49:49;;;;;;;37.05;16.35;;;;;;;5.76;97.69;99194.13;5060530;28;20025;-65
2021/11/07 06:52:15;;;;;;;36.83;16.40;;;;;;;5.82;97.48;99183.75;5063694;28;20017;-66
2021/11/07 06:54:40;;;;;;;38.97;16.85;;;;;;;6.01;97.83;99181.28;5053957;28;20048;-65
2021/11/07 06:57:06;;;;;;;32.33;15.13;;;;;;;6.03;97.49;99187.41;5061080;28;20052;-65
2021/11/07 06:59:32;;;;;;;34.05;15.93;;;;;;;5.95;96.50;99206.50;5057694;28;20051;-66
2021/11/07 07:01:58;;;;;;;32.90;16.23;;;;;;;5.85;96.56;99199.44;5064553;28;20160;-66
2021/11/07 07:04:23;;;;;;;31.33;15.77;;;;;;;5.90;96.77;99195.13;5059971;28;20029;-66
2021/11/07 07:06:49;;;;;;;35.72;16.42;;;;;;;5.75;97.04;99190.63;5053898;28;20028;-66
2021/11/07 07:09:21;;;;;;;32.58;15.25;;;;;;;5.74;97.08;99190.63;5052252;28;20052;-65
2021/11/07 07:11:49;;;;;;;32.08;16.67;;;;;;;5.75;97.63;99189.75;5045869;28;20071;-65
2021/11/07 07:24:59;;;;;;;33.58;15.98;;;;;;;5.98;98.18;99224.81;5064970;28;20248;-65
2021/11/07 07:30:25;;;;;;;31.48;15.98;;;;;;;6.00;98.39;99194.34;5062558;28;20036;-65
2021/11/07 07:35:28;;;;;;;30.63;13.90;;;;;;;6.16;98.79;99180.50;5062369;28;20063;-65
2021/11/07 07:37:55;;;;;;;29.88;15.60;;;;;;;6.17;97.88;99188.38;5055494;28;20020;-65
2021/11/07 07:40:21;;;;;;;28.58;13.82;;;;;;;6.19;98.64;99188.38;5064685;28;20189;-65
2021/11/07 07:42:46;;;;;;;28.80;14.60;;;;;;;6.13;98.30;99196.16;5064129;28;20024;-65
2021/11/07 07:45:12;;;;;;;38.95;15.55;;;;;;;6.01;98.27;99196.09;5058378;28;20017;-65
2021/11/07 07:47:38;;;;;;;32.10;15.18;;;;;;;6.05;99.16;99176.97;5046742;28;21441;-65
2021/11/07 07:50:05;;;;;;;30.90;14.00;;;;;;;6.14;98.74;99169.19;5047286;28;20025;-65
2021/11/07 07:52:30;;;;;;;27.70;13.10;;;;;;;6.04;99.00;99155.19;5054002;28;20017;-65
2021/11/07 07:54:56;;;;;;;31.50;13.43;;;;;;;6.11;99.32;99149.13;5046139;28;20022;-65
2021/11/07 07:57:23;;;;;;;24.75;12.15;;;;;;;6.03;99.44;99153.44;5057154;28;20080;-65
2021/11/07 07:59:48;;;;;;;24.40;11.77;;;;;;;6.23;99.08;99177.06;5047765;28;20032;-65
2021/11/07 08:02:14;;;;;;;24.83;11.93;;;;;;;6.21;98.83;99186.66;5048015;28;20084;-65
2021/11/07 08:04:39;;;;;;;23.13;11.55;;;;;;;6.09;98.85;99189.19;5049330;28;20029;-65
2021/11/07 08:07:04;;;;;;;21.27;11.65;;;;;;;6.13;98.93;99196.16;5044896;28;20190;-65
2021/11/07 08:09:30;;;;;;;18.20;10.75;;;;;;;6.02;99.58;99192.63;5058574;28;20016;-65
2021/11/07 08:11:55;;;;;;;23.70;10.98;;;;;;;6.06;99.56;99194.38;5063798;28;20031;-65
2021/11/07 08:14:21;;;;;;;19.98;10.20;;;;;;;6.09;99.67;99199.63;5060601;28;20310;-65
2021/11/07 08:16:46;;;;;;;21.67;10.95;;;;;;;6.18;99.94;99199.69;5044728;28;20074;-65
2021/11/07 08:19:12;;;;;;;33.28;12.63;;;;;;;6.19;99.47;99185.75;5055630;28;20020;-65
2021/11/07 08:21:38;;;;;;;22.70;11.88;;;;;;;6.16;99.61;99176.16;5049723;28;20067;-65
2021/11/07 08:24:08;;;;;;;25.05;11.80;;;;;;;6.30;100.00;99173.66;5044380;28;20021;-65
2021/11/07 08:26:35;;;;;;;19.77;10.27;;;;;;;6.47;100.00;99166.75;5059494;28;20046;-65
2021/11/07 08:29:01;;;;;;;20.55;11.05;;;;;;;6.48;99.46;99168.50;5062234;28;20020;-65
2021/11/07 08:31:29;;;;;;;21.58;11.27;;;;;;;6.60;99.55;99168.56;5063819;28;20012;-65
2021/11/07 08:33:55;;;;;;;19.90;10.85;;;;;;;6.44;99.01;99166.75;5048879;28;20021;-65
2021/11/07 08:36:38;;;;;;;20.25;10.55;;;;;;;6.42;99.26;99160.63;5057023;28;20019;-65
2021/11/07 08:42:52;;;;;;;20.67;10.70;;;;;;;6.50;99.51;99151.97;5063139;28;20198;-65
2021/11/07 09:01:30;;;;;;;14.50;8.65;;;;;;;6.88;99.39;99167.81;5063941;28;20027;-66
2021/11/07 09:06:46;;;;;;;33.00;9.85;;;;;;;6.95;98.61;99140.81;5045969;28;20068;-66
2021/11/07 09:09:14;;;;;;;16.30;8.82;;;;;;;7.08;97.84;99150.44;5043852;28;20025;-66
2021/11/07 09:11:49;;;;;;;14.50;8.20;;;;;;;6.95;97.79;99142.53;5043892;28;20079;-66
2021/11/07 09:14:20;;;;;;;15.55;8.88;;;;;;;7.04;98.08;99134.72;5044033;28;20028;-67
2021/11/07 09:16:51;;;;;;;14.63;8.80;;;;;;;7.15;98.02;99154.81;5044445;28;20028;-67
2021/11/07 09:19:21;;;;;;;14.88;7.97;;;;;;;6.94;97.92;99165.22;5043702;28;20025;-67
2021/11/07 09:21:51;;;;;;;17.75;8.32;;;;;;;6.82;98.14;99157.34;5069471;28;20040;-67
2021/11/07 09:24:54;;;;;;;16.83;8.35;;;;;;;6.99;98.41;99149.56;5064618;28;20261;-67
2021/11/07 09:27:16;;;;;;;14.65;8.90;;;;;;;6.92;98.21;99140.78;5068284;28;20029;-67
2021/11/07 09:29:49;;;;;;;15.57;8.15;;;;;;;7.04;98.57;99130.38;5067858;28;20028;-67
2021/11/07 09:34:56;;;;;;;12.48;7.70;;;;;;;6.97;98.32;99091.97;5068020;28;20066;-67
2021/11/07 09:37:47;;;;;;;12.95;6.95;;;;;;;7.22;98.11;99091.16;5067709;28;20032;-67
2021/11/07 09:40:15;;;;;;;18.65;8.30;;;;;;;7.40;98.01;99101.63;5067322;28;20032;-67
2021/11/07 09:45:48;;;;;;;12.25;6.88;;;;;;;7.41;97.22;99132.19;5048414;28;20037;-67
2021/11/07 09:48:21;;;;;;;12.73;7.22;;;;;;;7.42;97.58;99128.69;5047885;28;20225;-65
2021/11/07 09:50:48;;;;;;;14.63;8.02;;;;;;;7.38;97.67;99140.03;5047483;28;20040;-64
2021/11/07 09:53:14;;;;;;;19.58;8.50;;;;;;;7.30;98.68;99144.38;5052904;28;20028;-64
2021/11/07 09:55:41;;;;;;;15.30;8.32;;;;;;;7.24;99.72;99133.03;5066977;28;20138;-64
2021/11/07 09:58:07;;;;;;;14.57;8.00;;;;;;;7.18;99.88;99136.50;5060405;28;20025;-64
2021/11/07 10:00:39;;;;;;;12.45;7.18;;;;;;;7.24;99.73;99133.88;5047718;28;20043;-64
2021/11/07 10:03:05;;;;;;;16.42;7.38;;;;;;;7.27;100.00;99139.13;5061401;28;20256;-65
2021/11/07 10:05:36;;;;;;;13.65;7.35;;;;;;;7.31;100.00;99135.63;5058485;28;20089;-65
2021/11/07 10:08:04;;;;;;;16.92;7.25;;;;;;;7.33;100.00;99133.91;5045618;28;20025;-65
2021/11/07 10:10:37;;;;;;;16.48;8.23;;;;;;;7.34;100.00;99119.94;5055952;28;20335;-65
2021/11/07 10:13:13;;;;;;;16.45;7.72;;;;;;;7.36;100.00;99112.09;5059262;28;20021;-65
2021/11/07 10:15:48;;;;;;;16.38;7.80;;;;;;;7.29;100.00;99121.69;5065828;28;20013;-65
2021/11/07 10:21:36;;;;;;;10.98;6.82;;;;;;;7.40;100.00;99119.94;5065521;28;20058;-65
2021/11/07 10:24:02;;;;;;;11.02;6.03;;;;;;;7.44;100.00;99132.16;5063887;28;20040;-65
2021/11/07 10:26:34;;;;;;;11.73;5.32;;;;;;;7.46;100.00;99133.03;5059248;28;20264;-65
2021/11/07 10:29:01;;;;;;;11.30;6.13;;;;;;;7.50;100.00;99123.47;5046232;28;20055;-65
2021/11/07 10:31:32;;;;;;;13.48;5.88;;;;;;;7.54;100.00;99123.47;5051220;28;20017;-65
2021/11/07 10:34:14;;;;;;;9.50;5.07;;;;;;;7.52;100.00;99130.44;5065339;28;20050;-65
2021/11/07 10:52:44;;;;;;;9.55;5.68;;;;;;;7.70;99.91;99130.44;5045960;28;20082;-66
2021/11/07 10:55:31;;;;;;;9.65;5.63;;;;;;;7.77;99.79;99118.19;5046470;28;20018;-65
2021/11/07 10:58:05;;;;;;;12.32;6.10;;;;;;;7.83;99.80;99111.22;5057293;28;20059;-65
2021/11/07 11:00:39;;;;;;;12.40;5.32;;;;;;;7.80;99.87;99111.22;5064865;28;20197;-65
2021/11/07 11:03:17;;;;;;;9.55;5.22;;;;;;;7.85;100.00;99106.84;5061684;28;20021;-65
2021/11/07 11:05:52;;;;;;;11.18;5.70;;;;;;;7.76;100.00;99104.25;5059770;28;20021;-65
2021/11/07 11:08:38;;;;;;;10.15;5.70;;;;;;;7.74;100.00;99103.38;5063186;28;20062;-65
2021/11/07 11:30:18;;;;;;;8.18;4.10;;;;;;;8.13;98.66;99079.69;5045555;28;20021;-65
2021/11/07 11:33:29;;;;;;;11.07;4.15;;;;;;;8.06;98.44;99067.50;5045824;28;20029;-65
2021/11/07 11:43:22;;;;;;;8.65;5.15;;;;;;;8.06;98.23;99049.13;5064472;28;20506;-65
2021/11/07 11:45:56;;;;;;;8.57;4.97;;;;;;;8.02;99.32;99043.91;5064728;28;20020;-65
2021/11/07 12:00:51;;;;;;;8.55;4.45;;;;;;;8.11;98.92;99055.25;5052643;28;20024;-65
2021/11/07 12:03:20;;;;;;;9.02;5.00;;;;;;;8.13;99.28;99037.75;5068264;28;20210;-65
2021/11/07 12:08:37;;;;;;;9.73;5.32;;;;;;;8.11;99.60;99039.53;5076253;28;20205;-65
2021/11/07 12:16:56;;;;;;;9.55;4.78;;;;;;;8.07;98.82;99037.75;5053110;28;20084;-65
2021/11/07 12:19:43;;;;;;;7.85;4.35;;;;;;;8.06;99.43;99043.91;5057252;28;20017;-65
2021/11/07 12:22:17;;;;;;;10.48;5.47;;;;;;;8.00;99.63;99035.16;5064336;28;20068;-65
2021/11/07 12:24:49;;;;;;;8.15;4.72;;;;;;;8.08;99.73;99034.28;5063652;28;20084;-65
2021/11/07 12:27:21;;;;;;;9.70;5.00;;;;;;;8.11;99.66;99033.41;5063684;28;20037;-65
2021/11/07 12:29:55;;;;;;;8.40;4.50;;;;;;;8.09;99.04;99030.78;5054505;28;20044;-65
2021/11/07 12:32:31;;;;;;;7.93;4.32;;;;;;;8.19;99.68;99027.25;5057869;28;20028;-65
2021/11/07 12:41:02;;;;;;;7.82;4.65;;;;;;;8.07;99.58;99032.53;5063416;28;20212;-65
2021/11/07 12:43:31;;;;;;;7.53;4.72;;;;;;;8.11;100.00;99026.41;5061083;28;20247;-65
2021/11/07 12:49:13;;;;;;;8.82;5.13;;;;;;;8.03;99.70;99009.81;5044016;28;20091;-65
2021/11/07 12:51:44;;;;;;;9.93;5.68;;;;;;;8.02;100.00;99015.06;5044300;28;20025;-65
2021/11/07 12:54:36;;;;;;;9.30;5.18;;;;;;;8.03;99.59;99015.06;5044134;28;20017;-65
2021/11/07 12:57:09;;;;;;;9.70;5.53;;;;;;;8.08;99.82;99017.69;5044656;28;20340;-65
2021/11/07 12:59:58;;;;;;;10.35;5.57;;;;;;;8.01;100.00;99022.06;5043467;28;20021;-65
2021/11/07 13:02:31;;;;;;;8.30;4.85;;;;;;;7.99;100.00;99022.94;5056437;28;20024;-65
2021/11/07 13:05:15;;;;;;;10.68;5.25;;;;;;;7.92;100.00;99016.88;5054934;28;20013;-65
2021/11/07 13:13:16;;;;;;;8.73;5.40;;;;;;;8.00;100.00;99009.84;5053030;28;20033;-65
2021/11/07 13:18:50;;;;;;;12.13;5.30;;;;;;;8.08;100.00;99008.06;5055971;28;20218;-65
2021/11/07 13:21:58;;;;;;;10.60;5.47;;;;;;;8.12;100.00;99009.81;5057155;28;20035;-65
2021/11/07 13:25:13;;;;;;;10.55;5.90;;;;;;;8.06;100.00;99004.56;5057240;28;20255;-65
2021/11/07 13:30:04;;;;;;;9.90;5.57;;;;;;;8.07;100.00;98985.34;5063062;28;20067;-65
2021/11/07 13:32:31;;;;;;;9.55;5.18;;;;;;;8.11;100.00;99000.19;5063135;28;20063;-65
2021/11/07 13:35:11;;;;;;;9.95;5.80;;;;;;;8.11;100.00;98997.59;5060098;28;20021;-65
2021/11/07 13:37:40;;;;;;;7.45;5.18;;;;;;;8.11;100.00;98991.44;5043620;28;20021;-65
2021/11/07 13:40:30;;;;;;;8.75;5.38;;;;;;;8.13;100.00;98987.94;5043536;28;20028;-65
2021/11/07 13:43:04;;;;;;;9.23;5.40;;;;;;;8.15;100.00;98996.69;5043568;28;20252;-65
2021/11/07 13:45:33;;;;;;;9.48;5.63;;;;;;;8.15;100.00;98994.06;5043273;28;20021;-65
2021/11/07 13:48:01;;;;;;;11.70;5.72;;;;;;;8.15;100.00;98999.31;5043342;28;20222;-65
2021/11/07 13:50:32;;;;;;;9.27;5.72;;;;;;;8.10;100.00;98995.81;5059652;28;20043;-65
2021/11/07 13:52:58;;;;;;;9.88;5.88;;;;;;;8.18;100.00;98990.53;5063040;28;20316;-65
2021/11/07 13:55:51;;;;;;;11.48;5.65;;;;;;;8.18;99.99;98988.81;5056854;28;20017;-65
2021/11/07 13:58:20;;;;;;;11.73;5.47;;;;;;;8.15;100.00;98996.69;5052216;28;20036;-65
2021/11/07 14:00:47;;;;;;;11.15;5.43;;;;;;;8.16;100.00;98997.53;5051292;28;20205;-65
2021/11/07 14:03:15;;;;;;;8.52;5.10;;;;;;;8.13;100.00;98984.47;5062282;28;20080;-65
2021/11/07 14:06:17;;;;;;;8.00;5.40;;;;;;;8.17;100.00;98981.78;5062582;28;20313;-65
2021/11/07 14:08:57;;;;;;;10.15;6.22;;;;;;;8.17;100.00;98994.91;5057128;28;20049;-65
2021/11/07 14:11:23;;;;;;;9.57;5.68;;;;;;;8.21;100.00;98993.16;5044194;28;20048;-65
2021/11/07 14:13:53;;;;;;;11.75;5.18;;;;;;;8.24;100.00;98994.06;5046934;28;20021;-65
2021/11/07 14:16:49;;;;;;;8.80;4.75;;;;;;;8.21;100.00;98987.91;5046431;28;20021;-65
2021/11/07 14:19:15;;;;;;;8.80;5.25;;;;;;;8.21;100.00;98983.56;5056629;28;20025;-65
2021/11/07 14:21:46;;;;;;;9.35;5.78;;;;;;;8.15;100.00;98977.44;5057347;28;20075;-65
2021/11/07 14:24:28;;;;;;;9.43;5.13;;;;;;;8.21;100.00;98967.81;5065867;28;20079;-65
2021/11/07 14:27:01;;;;;;;7.78;5.28;;;;;;;8.21;100.00;98970.44;5065884;28;20028;-66